SAZT/TDL METAR and TAF weather

Enter ICAO airport designator
Station Type Date Time Source
SAZT METAR 2021/05/08 14:19 UTC NOAA

SAZT 081419Z 02027G37KT 9999 SCT009 SCT200 11/11 Q1027


Station Type Date Time Source
SAZT Decoded METAR 2021/05/08 14:19 UTC NOAA

Tandil Aerodrome, Argentina (SAZT) 37-14S 059-15W 175M
May 08, 2021 - 10:19 AM EDT / 2021.05.08 1419 UTC
Wind: from the NNE (020 degrees) at 31 MPH (27 KT) gusting to 43 MPH (37 KT):0
Visibility: greater than 7 mile(s):0
Sky conditions: partly cloudy
Temperature: 51 F (11 C)
Dew Point: 51 F (11 C)
Relative Humidity: 100%
Pressure (altimeter): 30.33 in. Hg (1027 hPa)
ob: SAZT 081419Z 02027G37KT 9999 SCT009 SCT200 11/11 Q1027
cycle: 14

Station Type Date Time Source
SAZT TAF UTC NOAA

Error!

Example: see airport list